Time;durP1;ratioP1;P1;durP2;ratioP2;P2;SDS_P1;SDS_P2;PMS_P1;PMS_P2;Temp;Humidity;BMP_temperature;BMP_pressure;BME280_temperature;BME280_humidity;BME280_pressure;Samples;Min_cycle;Max_cycle;Signal;HPM_P1;HPM_P2
2022/06/06 00:00:39;;;;;;;27.20;12.43;;;;;;;13.51;100.00;101361.81;5034482;28;20124;-68
2022/06/06 00:03:04;;;;;;;26.60;11.80;;;;;;;13.55;100.00;101363.38;5016703;28;20087;-67
2022/06/06 00:05:29;;;;;;;26.77;12.02;;;;;;;13.49;100.00;101355.69;5033869;28;20060;-68
2022/06/06 00:07:55;;;;;;;27.67;11.50;;;;;;;13.50;100.00;101365.41;5033574;28;20022;-68
2022/06/06 00:10:20;;;;;;;24.67;11.93;;;;;;;13.51;100.00;101353.84;5000131;28;20095;-68
2022/06/06 00:12:46;;;;;;;27.48;12.35;;;;;;;13.45;100.00;101360.28;5034158;28;20084;-68
2022/06/06 00:15:14;;;;;;;23.83;11.30;;;;;;;13.43;100.00;101357.72;5016042;28;20021;-68
2022/06/06 00:17:39;;;;;;;22.50;10.50;;;;;;;13.46;100.00;101359.38;5015814;28;20033;-67
2022/06/06 00:20:06;;;;;;;23.45;11.05;;;;;;;13.42;100.00;101353.31;5033809;28;20384;-68
2022/06/06 00:22:31;;;;;;;24.67;11.85;;;;;;;13.44;100.00;101354.13;5016326;28;20099;-68
2022/06/06 00:24:56;;;;;;;22.77;11.43;;;;;;;13.43;100.00;101348.88;5033982;28;20033;-68
2022/06/06 00:27:22;;;;;;;20.35;11.07;;;;;;;13.46;100.00;101347.88;5033331;28;20374;-68
2022/06/06 00:29:49;;;;;;;23.88;11.88;;;;;;;13.44;100.00;101342.63;5016041;28;20045;-68
2022/06/06 00:35:03;;;;;;;24.20;11.63;;;;;;;13.47;100.00;101344.28;5034112;28;20048;-69
2022/06/06 00:37:31;;;;;;;25.40;11.93;;;;;;;13.47;100.00;101331.84;5016520;28;20041;-68
2022/06/06 00:39:57;;;;;;;22.00;11.80;;;;;;;13.46;100.00;101342.56;5033228;28;20025;-68
2022/06/06 00:42:34;;;;;;;28.52;12.32;;;;;;;13.48;100.00;101333.56;5015681;28;20047;-67
2022/06/06 00:45:21;;;;;;;26.17;12.82;;;;;;;13.47;100.00;101329.16;5013837;28;20105;-68
2022/06/06 00:47:53;;;;;;;25.55;12.70;;;;;;;13.47;100.00;101326.50;5021129;28;20083;-67
2022/06/06 00:50:21;;;;;;;;;;;;;;;13.46;100.00;101326.59;5033655;28;20032;-68
2022/06/06 00:52:49;;;;;;;24.90;11.75;;;;;;;13.49;100.00;101327.31;5033474;28;19920;-68
2022/06/06 00:55:19;;;;;;;34.10;14.75;;;;;;;13.48;100.00;101322.91;5015595;28;20036;-67
2022/06/06 00:57:50;;;;;;;29.95;13.57;;;;;;;13.50;100.00;101331.66;5033122;28;20104;-67
2022/06/06 01:00:18;;;;;;;33.55;14.40;;;;;;;13.50;100.00;101322.84;5032703;28;20033;-67
2022/06/06 01:02:48;;;;;;;26.45;13.27;;;;;;;13.51;100.00;101320.09;5033214;28;20492;-68
2022/06/06 01:05:14;;;;;;;27.52;13.73;;;;;;;13.52;100.00;101318.31;5033175;28;20477;-67
2022/06/06 01:07:39;;;;;;;26.88;13.52;;;;;;;13.51;100.00;101328.06;5032936;28;20067;-68
2022/06/06 01:10:05;;;;;;;30.30;13.48;;;;;;;13.50;100.00;101320.19;5014654;28;20029;-67
2022/06/06 01:12:32;;;;;;;30.00;14.57;;;;;;;13.53;100.00;101322.66;5024918;28;20041;-68
2022/06/06 01:15:07;;;;;;;30.63;14.82;;;;;;;13.55;100.00;101313.69;5013220;28;20045;-68
2022/06/06 01:17:57;;;;;;;31.25;14.55;;;;;;;13.54;100.00;101306.66;5011941;28;20029;-67
2022/06/06 01:20:41;;;;;;;33.03;14.88;;;;;;;13.55;100.00;101310.16;5028343;28;20029;-67
2022/06/06 01:23:38;;;;;;;30.83;15.50;;;;;;;13.55;100.00;101310.16;5015414;28;20111;-67
2022/06/06 01:26:16;;;;;;;29.48;14.55;;;;;;;13.57;100.00;101305.63;5002621;28;20037;-68
2022/06/06 01:28:42;;;;;;;30.67;13.85;;;;;;;13.58;100.00;101300.25;5032544;28;20170;-68
2022/06/06 01:31:11;;;;;;;29.80;14.77;;;;;;;13.60;100.00;101298.34;5014891;28;20033;-67
2022/06/06 01:33:51;;;;;;;29.80;14.85;;;;;;;13.62;100.00;101287.66;5015103;28;20025;-67
2022/06/06 01:36:17;;;;;;;26.50;13.75;;;;;;;13.64;100.00;101290.22;5032261;28;20025;-67
2022/06/06 01:38:42;;;;;;;26.27;13.50;;;;;;;13.64;100.00;101298.22;5032293;28;20499;-67
2022/06/06 01:41:11;;;;;;;24.88;13.00;;;;;;;13.62;100.00;101300.06;5011841;28;20053;-68
2022/06/06 01:43:44;;;;;;;25.08;12.52;;;;;;;13.63;100.00;101299.13;5012944;28;20482;-68
2022/06/06 01:46:17;;;;;;;28.52;12.18;;;;;;;13.62;100.00;101306.28;5013165;28;20053;-68
2022/06/06 01:48:44;;;;;;;24.27;11.55;;;;;;;13.66;100.00;101293.66;5026964;28;20034;-67
2022/06/06 01:51:16;;;;;;;27.88;12.73;;;;;;;13.68;100.00;101294.44;5032051;28;20029;-68
2022/06/06 01:53:41;;;;;;;25.35;12.43;;;;;;;13.65;100.00;101299.94;5032351;28;20563;-68
2022/06/06 01:56:10;;;;;;;25.80;11.80;;;;;;;13.67;100.00;101293.59;5032533;28;20060;-68
2022/06/06 01:58:35;;;;;;;26.45;11.98;;;;;;;13.67;100.00;101298.91;5014480;28;20546;-68
2022/06/06 02:01:02;;;;;;;25.58;12.73;;;;;;;13.68;100.00;101284.69;5031925;28;20112;-67
2022/06/06 02:03:28;;;;;;;25.33;13.30;;;;;;;13.66;100.00;101286.53;5031922;28;20033;-67
2022/06/06 02:05:54;;;;;;;26.13;13.13;;;;;;;13.69;100.00;101283.72;5031974;28;20393;-67
2022/06/06 02:08:20;;;;;;;22.75;12.13;;;;;;;13.62;100.00;101284.97;5031948;28;20033;-67
2022/06/06 02:10:46;;;;;;;26.52;13.20;;;;;;;13.64;100.00;101283.09;5032272;28;20029;-67
2022/06/06 02:13:11;;;;;;;27.38;13.38;;;;;;;13.63;100.00;101277.84;5031540;28;20025;-67
2022/06/06 02:15:37;;;;;;;27.17;13.02;;;;;;;13.63;100.00;101281.34;5032099;28;20025;-67
2022/06/06 02:18:03;;;;;;;24.15;12.23;;;;;;;13.62;100.00;101292.97;5031868;28;20439;-67
2022/06/06 02:20:31;;;;;;;25.17;12.65;;;;;;;13.62;100.00;101287.66;5031645;28;20029;-67
2022/06/06 02:22:57;;;;;;;28.83;12.68;;;;;;;13.63;100.00;101291.16;5031338;28;20544;-68
2022/06/06 02:25:24;;;;;;;25.33;12.43;;;;;;;13.65;100.00;101286.63;5031510;28;20136;-67
2022/06/06 02:27:50;;;;;;;27.00;14.05;;;;;;;13.62;100.00;101289.44;5014193;28;20030;-68
2022/06/06 02:30:20;;;;;;;25.77;12.65;;;;;;;13.64;100.00;101287.56;5031654;28;20023;-68
2022/06/06 02:32:45;;;;;;;26.48;12.95;;;;;;;13.65;100.00;101284.81;5013740;28;20087;-67
2022/06/06 02:35:14;;;;;;;28.80;13.40;;;;;;;13.70;100.00;101281.94;5013939;28;20088;-68
2022/06/06 02:37:40;;;;;;;30.63;12.82;;;;;;;13.70;100.00;101289.91;5014229;28;20127;-69
2022/06/06 02:40:09;;;;;;;28.67;13.07;;;;;;;13.69;100.00;101283.72;5013722;28;20043;-67
2022/06/06 02:42:35;;;;;;;25.77;12.73;;;;;;;13.70;100.00;101288.09;5013884;28;20044;-66
2022/06/06 02:45:00;;;;;;;25.70;12.27;;;;;;;13.75;100.00;101287.88;5031429;28;20172;-67
2022/06/06 02:47:25;;;;;;;30.77;12.93;;;;;;;13.77;100.00;101265.56;5031709;28;20040;-67
2022/06/06 02:49:51;;;;;;;25.92;13.25;;;;;;;13.79;100.00;101276.13;5031453;28;20436;-67
2022/06/06 02:52:16;;;;;;;25.05;12.25;;;;;;;13.74;100.00;101267.53;5033324;28;20477;-67
2022/06/06 02:54:42;;;;;;;28.50;14.02;;;;;;;13.65;100.00;101252.88;5017463;28;20378;-68
2022/06/06 02:57:07;;;;;;;27.38;13.55;;;;;;;13.55;100.00;101264.94;5035782;28;20041;-67
2022/06/06 02:59:34;;;;;;;29.95;12.98;;;;;;;13.51;100.00;101255.38;5035384;28;20017;-67
2022/06/06 03:02:02;;;;;;;29.00;13.40;;;;;;;13.53;100.00;101264.13;5018129;28;20029;-67
2022/06/06 03:04:28;;;;;;;29.95;14.25;;;;;;;13.51;100.00;101271.34;5034803;28;20026;-67
2022/06/06 03:06:55;;;;;;;29.30;13.38;;;;;;;13.52;100.00;101268.59;5017971;28;20104;-67
2022/06/06 03:09:54;;;;;;;29.98;13.30;;;;;;;13.56;100.00;101270.16;5035194;28;20025;-67
2022/06/06 03:12:34;;;;;;;29.48;13.63;;;;;;;13.62;100.00;101273.47;5035235;28;20033;-69
2022/06/06 03:14:59;;;;;;;28.55;12.85;;;;;;;13.67;100.00;101274.09;5034542;28;20029;-68
2022/06/06 03:20:50;;;;;;;33.25;13.68;;;;;;;13.74;100.00;101281.69;5035131;28;20119;-67
2022/06/06 03:23:39;;;;;;;30.42;13.82;;;;;;;13.77;100.00;101270.00;5035018;28;20595;-67
2022/06/06 03:26:50;;;;;;;34.45;14.85;;;;;;;13.72;100.00;101269.38;5034502;28;20033;-67
2022/06/06 03:29:28;;;;;;;31.27;14.13;;;;;;;13.68;100.00;101260.72;4998546;28;20048;-67
2022/06/06 03:32:12;;;;;;;34.22;15.52;;;;;;;13.67;100.00;101271.44;5016971;28;20037;-67
2022/06/06 03:34:50;;;;;;;31.67;14.75;;;;;;;13.68;100.00;101282.00;5034748;28;20030;-67
2022/06/06 03:37:32;;;;;;;32.08;15.02;;;;;;;13.71;100.00;101268.53;5034710;28;20057;-68
2022/06/06 03:40:34;;;;;;;35.35;16.45;;;;;;;13.78;100.00;101266.41;5034565;28;20026;-68
2022/06/06 03:43:22;;;;;;;37.55;15.55;;;;;;;13.82;100.00;101273.28;5017023;28;20041;-68
2022/06/06 03:45:56;;;;;;;31.77;15.95;;;;;;;13.85;100.00;101273.16;5034067;28;20065;-68
2022/06/06 03:48:51;;;;;;;32.75;16.38;;;;;;;13.89;100.00;101269.38;5034698;28;20076;-68
2022/06/06 03:51:19;;;;;;;31.15;15.52;;;;;;;13.92;100.00;101263.03;5021529;28;20034;-68
2022/06/06 03:53:54;;;;;;;34.00;14.73;;;;;;;13.96;100.00;101264.59;5034534;28;20097;-67
2022/06/06 03:56:45;;;;;;;35.42;16.48;;;;;;;13.96;100.00;101269.06;5016271;28;20021;-66
2022/06/06 03:59:13;;;;;;;31.95;15.90;;;;;;;14.01;100.00;101273.19;5034647;28;20029;-67
2022/06/06 04:01:41;;;;;;;37.38;16.73;;;;;;;14.04;100.00;101270.41;5034492;28;20120;-68
2022/06/06 04:04:07;;;;;;;39.50;16.42;;;;;;;14.05;100.00;101271.25;5016274;28;20392;-68
2022/06/06 04:06:33;;;;;;;33.08;15.52;;;;;;;14.05;100.00;101274.78;5016052;28;20037;-67
2022/06/06 04:08:59;;;;;;;31.88;15.30;;;;;;;14.07;100.00;101270.22;5034129;28;20444;-68
2022/06/06 04:11:30;;;;;;;28.05;13.13;;;;;;;13.99;100.00;101272.44;5034109;28;20083;-68
2022/06/06 04:14:07;;;;;;;26.00;11.57;;;;;;;14.01;100.00;101261.69;5034346;28;20029;-67
2022/06/06 04:16:49;;;;;;;24.05;11.40;;;;;;;14.05;100.00;101264.13;5033857;28;20142;-68
2022/06/06 04:19:30;;;;;;;24.60;11.10;;;;;;;14.10;100.00;101263.88;5006572;28;20516;-68
2022/06/06 04:22:04;;;;;;;18.98;9.25;;;;;;;14.03;100.00;101263.34;5033890;28;20443;-68
2022/06/06 04:25:09;;;;;;;20.27;9.52;;;;;;;14.12;100.00;101263.78;5033999;28;20029;-67
2022/06/06 04:27:41;;;;;;;16.10;7.97;;;;;;;14.24;100.00;101273.78;5033407;28;20400;-67
2022/06/06 04:30:13;;;;;;;22.33;7.78;;;;;;;14.35;100.00;101281.22;5033844;28;20028;-67
2022/06/06 04:32:49;;;;;;;15.00;7.60;;;;;;;14.29;100.00;101273.56;5033836;28;20121;-68
2022/06/06 04:35:50;;;;;;;16.02;6.63;;;;;;;14.16;100.00;101290.19;5033835;28;20025;-67
2022/06/06 04:38:21;;;;;;;12.65;5.97;;;;;;;14.09;100.00;101280.78;4992689;28;20087;-67
2022/06/06 04:40:56;;;;;;;15.85;6.65;;;;;;;14.05;100.00;101290.75;5033418;28;20037;-68
2022/06/06 04:43:31;;;;;;;16.15;5.40;;;;;;;14.03;100.00;101292.63;5033649;28;20025;-67
2022/06/06 04:46:05;;;;;;;12.82;5.30;;;;;;;13.98;100.00;101286.69;5033784;28;20024;-68
2022/06/06 04:48:34;;;;;;;11.50;4.93;;;;;;;14.02;100.00;101285.59;5032844;28;20530;-68
2022/06/06 04:51:00;;;;;;;11.82;4.97;;;;;;;14.07;100.00;101288.88;5013843;28;20022;-68
2022/06/06 04:53:28;;;;;;;10.80;5.00;;;;;;;14.21;100.00;101279.31;5030516;28;20041;-67
2022/06/06 04:55:56;;;;;;;12.32;4.55;;;;;;;14.27;100.00;101286.94;5033049;28;20485;-67
2022/06/06 04:58:25;;;;;;;11.05;3.92;;;;;;;14.39;100.00;101285.44;5032554;28;20035;-68
2022/06/06 05:00:51;;;;;;;11.43;3.83;;;;;;;14.45;100.00;101281.56;5032285;28;20457;-68
2022/06/06 05:03:16;;;;;;;9.95;4.30;;;;;;;14.42;100.00;101285.25;5016359;28;20018;-67
2022/06/06 05:05:57;;;;;;;8.57;3.67;;;;;;;14.38;100.00;101294.38;5033365;28;20033;-67
2022/06/06 05:09:01;;;;;;;7.13;3.45;;;;;;;14.25;100.00;101287.03;5027387;28;20109;-67
2022/06/06 05:11:38;;;;;;;10.38;3.75;;;;;;;14.24;100.00;101289.78;5024254;28;20025;-67
2022/06/06 05:14:51;;;;;;;8.48;3.65;;;;;;;14.30;100.00;101286.78;5030530;28;20477;-68
2022/06/06 05:17:19;;;;;;;7.30;3.40;;;;;;;14.18;100.00;101288.31;4974065;28;20052;-68
2022/06/06 05:19:55;;;;;;;12.50;3.50;;;;;;;14.14;100.00;101280.56;5031659;28;20455;-67
2022/06/06 05:22:39;;;;;;;9.10;3.20;;;;;;;14.09;100.00;101278.13;5029028;28;20029;-68
2022/06/06 05:25:23;;;;;;;6.53;3.60;;;;;;;14.28;100.00;101266.50;5032408;28;20107;-67
2022/06/06 05:28:06;;;;;;;9.80;3.33;;;;;;;14.41;100.00;101273.75;5032851;28;20021;-68
2022/06/06 05:30:56;;;;;;;7.88;3.28;;;;;;;14.55;100.00;101277.47;5032206;28;20033;-68
2022/06/06 05:33:45;;;;;;;7.18;3.10;;;;;;;14.55;100.00;101270.34;5032590;28;20044;-68
2022/06/06 05:36:21;;;;;;;9.23;3.22;;;;;;;14.55;100.00;101277.47;5032795;28;20025;-68
2022/06/06 05:39:23;;;;;;;10.77;3.50;;;;;;;14.56;100.00;101271.19;5032501;28;20104;-68
2022/06/06 05:42:12;;;;;;;7.90;2.80;;;;;;;14.59;100.00;101276.34;5027822;28;20053;-68
2022/06/06 05:44:37;;;;;;;7.25;3.13;;;;;;;14.66;100.00;101277.78;5019715;28;20104;-68
2022/06/06 05:47:34;;;;;;;9.35;3.03;;;;;;;14.70;100.00;101262.47;5032407;28;20109;-68
2022/06/06 05:49:59;;;;;;;4.32;2.80;;;;;;;14.74;100.00;101272.00;4999712;28;20073;-68
2022/06/06 05:53:02;;;;;;;7.43;3.05;;;;;;;14.81;100.00;101278.75;5031978;28;20429;-68
2022/06/06 05:55:52;;;;;;;10.05;2.90;;;;;;;14.83;100.00;101286.66;5031577;28;20030;-67
2022/06/06 05:58:43;;;;;;;11.32;3.08;;;;;;;14.78;100.00;101278.88;5012570;28;20113;-68
2022/06/06 06:01:08;;;;;;;8.57;2.80;;;;;;;14.81;100.00;101275.19;4994462;28;20037;-68
2022/06/06 06:03:44;;;;;;;9.75;3.20;;;;;;;14.96;100.00;101287.69;5032039;28;20287;-65
2022/06/06 06:06:36;;;;;;;5.43;2.78;;;;;;;15.06;100.00;101282.69;5032350;28;20596;-67
2022/06/06 06:09:19;;;;;;;7.93;2.70;;;;;;;15.07;100.00;101268.41;5024036;28;20091;-68
2022/06/06 06:11:55;;;;;;;10.70;3.05;;;;;;;15.18;100.00;101268.66;5024324;28;20477;-68
2022/06/06 06:14:21;;;;;;;5.78;2.35;;;;;;;15.25;100.00;101282.50;4997701;28;20059;-69
2022/06/06 06:16:52;;;;;;;8.38;2.60;;;;;;;15.21;100.00;101273.78;5023535;28;20065;-68
2022/06/06 06:19:22;;;;;;;5.25;2.70;;;;;;;15.34;100.00;101257.94;5031572;28;20017;-68
2022/06/06 06:21:59;;;;;;;7.38;2.63;;;;;;;15.35;100.00;101286.34;5013382;28;20366;-68
2022/06/06 06:24:30;;;;;;;9.77;3.42;;;;;;;15.39;100.00;101293.22;5030690;28;20021;-69
2022/06/06 06:26:56;;;;;;;7.05;2.60;;;;;;;15.49;100.00;101301.56;5031041;28;20037;-68
2022/06/06 06:29:22;;;;;;;7.45;2.40;;;;;;;15.37;100.00;101291.59;5031079;28;20076;-68
2022/06/06 06:32:17;;;;;;;5.88;2.10;;;;;;;15.26;100.00;101292.22;5028389;28;20025;-67
2022/06/06 06:35:07;;;;;;;6.32;2.33;;;;;;;15.35;99.16;101291.69;5029285;28;20247;-68
2022/06/06 06:37:56;;;;;;;7.47;2.40;;;;;;;15.42;100.00;101294.84;5029864;28;20031;-68
2022/06/06 06:40:35;;;;;;;6.00;2.22;;;;;;;15.32;100.00;101305.22;4985596;28;20041;-67
2022/06/06 06:43:10;;;;;;;5.43;2.08;;;;;;;15.29;99.82;101285.84;5030753;28;20025;-69
2022/06/06 06:45:44;;;;;;;5.70;2.22;;;;;;;15.13;98.59;101304.53;5029508;28;20026;-68
2022/06/06 06:48:19;;;;;;;6.00;1.80;;;;;;;15.35;98.09;101298.84;5031743;28;20022;-68
2022/06/06 06:50:54;;;;;;;4.85;2.17;;;;;;;15.45;98.56;101304.50;5030873;28;20053;-68
2022/06/06 06:53:26;;;;;;;6.22;1.80;;;;;;;15.40;95.50;101302.94;5023082;28;20029;-67
2022/06/06 06:56:26;;;;;;;4.97;1.70;;;;;;;15.35;94.34;101253.47;5030365;28;20029;-68
2022/06/06 06:58:53;;;;;;;5.22;1.88;;;;;;;15.45;94.18;101309.81;4987272;28;20476;-68
2022/06/06 07:11:04;;;;;;;5.07;1.73;;;;;;;15.79;92.05;101297.19;5031287;28;20090;-68
2022/06/06 07:13:41;;;;;;;6.75;1.70;;;;;;;15.94;91.71;101274.06;5030209;28;20036;-68
2022/06/06 07:16:22;;;;;;;8.15;1.88;;;;;;;15.98;90.13;101307.66;5029351;28;20117;-68
2022/06/06 07:18:55;;;;;;;6.50;1.63;;;;;;;15.84;88.75;101308.47;5026577;28;20025;-68
2022/06/06 07:21:23;;;;;;;6.57;1.85;;;;;;;15.68;89.54;101306.69;5031339;28;20049;-69
2022/06/06 07:23:50;;;;;;;6.30;1.75;;;;;;;15.50;89.57;101310.41;5035833;28;20037;-68
2022/06/06 07:26:16;;;;;;;6.60;1.73;;;;;;;15.41;90.00;101309.16;5031032;28;20022;-69
2022/06/06 07:28:42;;;;;;;4.60;1.70;;;;;;;15.42;90.12;101292.19;5031069;28;20104;-68
2022/06/06 07:31:22;;;;;;;4.55;1.60;;;;;;;15.39;91.44;101303.91;5012951;28;20030;-68
2022/06/06 07:34:09;;;;;;;5.47;2.03;;;;;;;15.44;90.96;101311.66;5002756;28;20374;-69
2022/06/06 07:36:52;;;;;;;4.43;1.70;;;;;;;15.75;91.11;101320.53;5032339;28;20038;-69
2022/06/06 07:39:46;;;;;;;5.43;1.70;;;;;;;15.85;90.23;101302.19;5021156;28;20034;-69
2022/06/06 07:42:30;;;;;;;4.53;1.95;;;;;;;15.75;89.35;101319.69;5034241;28;20045;-67
2022/06/06 07:45:14;;;;;;;5.00;1.70;;;;;;;15.96;89.04;101317.56;5031652;28;20038;-67
2022/06/06 07:47:52;;;;;;;6.03;1.80;;;;;;;16.21;88.12;101311.59;5021612;28;20045;-68
2022/06/06 07:50:35;;;;;;;8.95;2.13;;;;;;;15.87;87.50;101321.66;5034435;28;20489;-68
2022/06/06 07:53:19;;;;;;;6.28;1.90;;;;;;;15.79;89.07;101331.88;5033316;28;20160;-67
2022/06/06 07:55:51;;;;;;;6.85;1.77;;;;;;;15.63;90.00;101322.13;5033317;28;20075;-69
2022/06/06 07:58:37;;;;;;;8.50;2.17;;;;;;;15.52;91.06;101322.72;5034090;28;20037;-69
2022/06/06 08:01:26;;;;;;;6.60;2.05;;;;;;;15.39;91.77;101319.06;5033306;28;20033;-69
2022/06/06 08:03:56;;;;;;;5.95;1.80;;;;;;;15.29;92.02;101308.03;5033639;28;20017;-68
2022/06/06 08:06:48;;;;;;;6.00;1.70;;;;;;;15.65;92.20;101324.69;5033712;28;20030;-69
2022/06/06 08:09:26;;;;;;;7.20;2.03;;;;;;;16.22;90.83;101313.31;5040498;28;20124;-68
2022/06/06 08:12:03;;;;;;;8.68;2.38;;;;;;;16.50;91.46;101323.16;5035538;28;20022;-67
2022/06/06 08:14:50;;;;;;;7.22;2.80;;;;;;;16.65;90.12;101316.00;5033571;28;20053;-66
2022/06/06 08:17:30;;;;;;;6.50;1.70;;;;;;;16.22;88.41;101329.34;5030168;28;20022;-66
2022/06/06 08:20:28;;;;;;;5.35;1.85;;;;;;;15.82;89.22;101316.59;5015814;28;20485;-67
2022/06/06 08:22:58;;;;;;;6.97;1.85;;;;;;;15.70;89.92;101327.94;5033418;28;20075;-67
2022/06/06 08:25:24;;;;;;;7.20;1.85;;;;;;;15.94;88.98;101333.69;5030229;28;20473;-67
2022/06/06 08:27:51;;;;;;;6.03;1.73;;;;;;;16.17;89.37;101315.41;5031090;28;20083;-67
2022/06/06 08:30:19;;;;;;;4.53;1.65;;;;;;;16.53;88.36;101309.63;5033827;28;20017;-67
2022/06/06 08:32:46;;;;;;;5.95;2.03;;;;;;;16.90;85.80;101313.59;5025756;28;20485;-67
2022/06/06 08:35:11;;;;;;;7.10;2.10;;;;;;;16.93;85.21;101290.22;5035860;28;20116;-67
2022/06/06 08:37:55;;;;;;;6.28;1.83;;;;;;;17.69;83.15;101303.97;5015648;28;20390;-66
2022/06/06 08:40:59;;;;;;;6.60;1.80;;;;;;;18.13;79.31;101313.50;5033062;28;20025;-66
2022/06/06 08:43:27;;;;;;;8.07;2.10;;;;;;;17.77;79.33;101301.63;4998340;28;20050;-67
2022/06/06 08:46:15;;;;;;;3.67;1.65;;;;;;;16.95;82.56;101319.53;5009033;28;20037;-67
2022/06/06 08:52:25;;;;;;;9.15;2.10;;;;;;;15.83;88.32;101296.94;5003196;28;20056;-67
2022/06/06 08:55:04;;;;;;;4.82;1.85;;;;;;;15.68;89.22;101301.34;5012358;28;20021;-67
2022/06/06 08:57:38;;;;;;;7.75;2.25;;;;;;;15.64;90.79;101288.25;5012538;28;20505;-69
2022/06/06 09:00:16;;;;;;;6.60;2.13;;;;;;;15.61;91.29;101297.31;5012830;28;20034;-67
2022/06/06 09:02:47;;;;;;;6.95;1.98;;;;;;;15.64;91.61;101294.47;5012274;28;20614;-68
2022/06/06 09:05:30;;;;;;;5.75;2.10;;;;;;;15.68;92.27;101293.34;5011915;28;20040;-68
2022/06/06 09:08:17;;;;;;;6.57;2.20;;;;;;;16.33;90.51;101297.50;5007581;28;20042;-68
2022/06/06 09:11:01;;;;;;;3.95;2.00;;;;;;;17.30;85.15;101305.66;5004512;28;20033;-68
2022/06/06 09:13:32;;;;;;;5.22;1.90;;;;;;;17.40;85.58;101308.59;5011193;28;20033;-66
2022/06/06 09:16:32;;;;;;;7.57;1.95;;;;;;;18.69;77.86;101300.69;5011986;28;20551;-68
2022/06/06 09:19:23;;;;;;;3.80;1.63;;;;;;;19.27;73.06;101290.22;5012115;28;20030;-67
2022/06/06 09:22:19;;;;;;;4.57;1.75;;;;;;;18.71;74.80;101294.25;5012082;28;20022;-67
2022/06/06 09:25:24;;;;;;;6.60;1.80;;;;;;;18.88;74.72;101281.44;5005792;28;20037;-66
2022/06/06 09:28:17;;;;;;;5.03;1.77;;;;;;;19.14;74.94;101285.78;5008529;28;20163;-67
2022/06/06 09:31:16;;;;;;;5.43;1.80;;;;;;;20.57;68.84;101274.91;5009708;28;20478;-67
2022/06/06 09:34:19;;;;;;;6.47;2.00;;;;;;;19.45;69.77;101278.13;5012410;28;20026;-67
2022/06/06 09:36:52;;;;;;;5.32;2.28;;;;;;;18.32;75.38;101288.09;5014556;28;20069;-68
2022/06/06 09:39:50;;;;;;;6.05;1.90;;;;;;;17.97;78.75;101284.22;4997019;28;20475;-68
2022/06/06 09:42:37;;;;;;;7.70;1.83;;;;;;;17.91;78.74;101289.97;5027196;28;20045;-68
2022/06/06 09:45:34;;;;;;;6.43;1.95;;;;;;;17.70;80.55;101303.03;5031940;28;20302;-66
2022/06/06 09:48:17;;;;;;;8.18;2.10;;;;;;;17.55;83.30;101290.66;5026399;28;20144;-67
2022/06/06 09:51:13;;;;;;;7.85;2.45;;;;;;;17.52;85.55;101287.22;5031409;28;20059;-67
2022/06/06 10:00:21;;;;;;;7.18;2.30;;;;;;;17.94;83.02;101280.88;5030766;28;20095;-67
2022/06/06 10:03:23;;;;;;;6.13;2.08;;;;;;;17.78;83.01;101278.38;5027631;28;20246;-67
2022/06/06 10:06:19;;;;;;;8.13;2.30;;;;;;;18.40;83.70;101268.78;5027997;28;20487;-67
2022/06/06 10:08:59;;;;;;;7.22;2.28;;;;;;;19.11;81.08;101283.31;5030625;28;20075;-67
2022/06/06 10:12:11;;;;;;;3.28;2.00;;;;;;;20.23;76.07;101266.81;5012962;28;20095;-67
2022/06/06 10:14:39;;;;;;;8.20;2.17;;;;;;;19.36;76.83;101275.25;5030610;28;20037;-67
2022/06/06 10:17:13;;;;;;;6.78;2.03;;;;;;;18.63;81.71;101280.53;5030742;28;20034;-68
2022/06/06 10:20:00;;;;;;;6.32;2.30;;;;;;;18.21;82.84;101269.22;5031022;28;20037;-68
2022/06/06 10:22:43;;;;;;;9.85;2.65;;;;;;;17.72;85.10;101271.63;5030692;28;20080;-67
2022/06/06 10:25:20;;;;;;;6.15;2.30;;;;;;;17.49;87.98;101266.03;5012163;28;20084;-68
2022/06/06 10:27:58;;;;;;;8.13;2.88;;;;;;;17.35;88.77;101258.03;5014624;28;20411;-68
2022/06/06 10:30:34;;;;;;;5.07;2.60;;;;;;;17.11;90.05;101271.22;5019093;28;20029;-68
2022/06/06 10:33:15;;;;;;;7.90;2.45;;;;;;;17.14;89.28;101285.28;4997055;28;20056;-67
2022/06/06 10:35:54;;;;;;;8.60;2.55;;;;;;;17.09;89.66;101282.03;5030427;28;20029;-67
2022/06/06 10:38:34;;;;;;;7.72;2.53;;;;;;;17.06;89.22;101260.84;5035211;28;20025;-68
2022/06/06 10:41:21;;;;;;;4.97;2.35;;;;;;;16.86;94.46;101270.97;5021908;28;20041;-68
2022/06/06 10:44:04;;;;;;;7.70;2.80;;;;;;;16.61;100.00;101276.19;5027432;28;20036;-67
2022/06/06 10:46:35;;;;;;;7.53;2.63;;;;;;;16.64;99.66;101268.81;5020211;28;20034;-68
2022/06/06 10:49:24;;;;;;;8.40;2.90;;;;;;;16.87;95.45;101269.19;5021066;28;20029;-68
2022/06/06 10:52:05;;;;;;;5.80;2.40;;;;;;;16.90;94.93;101268.97;5034843;28;20064;-68
2022/06/06 10:55:13;;;;;;;8.38;2.60;;;;;;;16.95;94.03;101269.56;5026042;28;20022;-68
2022/06/06 10:57:48;;;;;;;6.10;2.53;;;;;;;17.06;96.37;101282.25;5013175;28;20493;-68
2022/06/06 11:00:46;;;;;;;7.18;2.90;;;;;;;17.01;94.63;101271.00;5030383;28;20133;-67
2022/06/06 11:03:30;;;;;;;8.85;2.80;;;;;;;17.01;94.95;101273.66;5030691;28;20130;-67
2022/06/06 11:06:33;;;;;;;9.13;2.92;;;;;;;16.79;96.28;101274.13;5042472;28;20079;-67
2022/06/06 11:09:35;;;;;;;12.45;3.53;;;;;;;16.32;100.00;101278.88;5030663;28;20104;-69
2022/06/06 11:12:28;;;;;;;7.55;3.17;;;;;;;15.69;100.00;101267.47;5030266;28;20029;-68
2022/06/06 11:14:54;;;;;;;7.60;3.22;;;;;;;15.22;100.00;101269.34;5031462;28;20473;-70
2022/06/06 11:17:37;;;;;;;7.50;3.50;;;;;;;15.24;100.00;101281.66;5033958;28;20044;-70
2022/06/06 11:20:24;;;;;;;5.13;2.70;;;;;;;15.28;100.00;101266.31;5016867;28;20036;-69
2022/06/06 11:23:10;;;;;;;7.95;2.72;;;;;;;15.54;100.00;101261.28;5034243;28;20075;-70
2022/06/06 11:26:03;;;;;;;7.72;3.60;;;;;;;15.81;100.00;101274.81;5031269;28;20029;-69
2022/06/06 11:29:05;;;;;;;8.63;2.80;;;;;;;15.67;100.00;101264.91;5032631;28;20507;-69
2022/06/06 11:31:39;;;;;;;8.13;3.10;;;;;;;15.53;100.00;101263.06;5027323;28;20107;-68
2022/06/06 11:34:42;;;;;;;5.68;2.70;;;;;;;15.34;100.00;101257.09;5015355;28;20029;-69
2022/06/06 11:37:23;;;;;;;7.45;2.70;;;;;;;15.27;100.00;101259.25;5033219;28;20021;-69
2022/06/06 11:40:25;;;;;;;9.90;3.13;;;;;;;15.41;100.00;101266.47;5033728;28;20022;-68
2022/06/06 11:43:03;;;;;;;8.85;3.08;;;;;;;15.65;100.00;101258.81;5026895;28;20057;-68
2022/06/06 11:45:31;;;;;;;8.52;3.05;;;;;;;15.76;100.00;101266.19;5033131;28;20151;-69
2022/06/06 11:48:34;;;;;;;9.57;3.38;;;;;;;15.72;100.00;101244.13;5034050;28;20104;-70
2022/06/06 11:51:26;;;;;;;12.68;4.35;;;;;;;15.80;100.00;101259.69;5033707;28;20022;-69
2022/06/06 11:54:03;;;;;;;6.80;2.83;;;;;;;15.67;100.00;101264.91;5032620;28;20108;-69
2022/06/06 11:56:57;;;;;;;5.63;2.88;;;;;;;15.53;100.00;101259.53;5014749;28;20116;-69
2022/06/06 11:59:43;;;;;;;5.75;2.20;;;;;;;15.21;100.00;101255.13;5033706;28;20018;-69
2022/06/06 12:02:29;;;;;;;6.68;2.67;;;;;;;14.89;100.00;101270.31;5031451;28;20112;-69
2022/06/06 12:05:26;;;;;;;6.18;3.35;;;;;;;14.76;100.00;101267.47;5033624;28;20087;-70
2022/06/06 12:08:01;;;;;;;5.93;2.70;;;;;;;14.84;100.00;101251.88;5032147;28;20052;-70
2022/06/06 12:10:34;;;;;;;9.18;3.10;;;;;;;14.83;100.00;101258.16;5033559;28;20079;-70
2022/06/06 12:13:29;;;;;;;9.63;3.25;;;;;;;14.75;100.00;101265.75;5033363;28;20029;-70
2022/06/06 12:16:16;;;;;;;10.07;3.17;;;;;;;14.73;100.00;101262.28;5033005;28;20197;-70
2022/06/06 12:19:03;;;;;;;9.05;3.40;;;;;;;14.79;100.00;101263.78;5033319;28;20025;-70
2022/06/06 12:21:39;;;;;;;5.63;3.05;;;;;;;14.69;100.00;101256.28;5033373;28;20100;-70
2022/06/06 12:24:45;;;;;;;6.45;2.58;;;;;;;14.52;100.00;101265.16;5032401;28;20091;-70
2022/06/06 12:27:46;;;;;;;4.68;2.42;;;;;;;14.45;100.00;101278.91;4988558;28;20037;-70
2022/06/06 12:30:21;;;;;;;3.92;1.80;;;;;;;14.43;100.00;101268.34;5029026;28;20111;-69